createdAt,value
2018-04-02T00:02:14.304Z,8.77
2018-04-02T00:04:41.875Z,8.40
2018-04-02T00:07:10.397Z,6.87
2018-04-02T00:09:37.940Z,6.80
2018-04-02T00:12:05.484Z,6.90
2018-04-02T00:14:33.057Z,6.80
2018-04-02T00:17:00.639Z,8.43
2018-04-02T00:19:28.583Z,7.03
2018-04-02T00:21:56.140Z,6.57
2018-04-02T00:24:23.690Z,7.37
2018-04-02T00:26:51.253Z,8.23
2018-04-02T00:29:18.998Z,7.90
2018-04-02T00:31:46.541Z,7.77
2018-04-02T00:34:14.108Z,8.67
2018-04-02T00:36:41.685Z,9.90
2018-04-02T00:39:10.331Z,11.60
2018-04-02T00:41:38.531Z,11.00
2018-04-02T00:44:06.219Z,10.90
2018-04-02T00:46:33.786Z,13.47
2018-04-02T00:49:01.368Z,11.43
2018-04-02T00:51:28.917Z,16.47
2018-04-02T00:53:56.485Z,12.73
2018-04-02T00:56:24.038Z,14.70
2018-04-02T00:58:51.611Z,18.97
2018-04-02T01:01:19.198Z,12.87
2018-04-02T01:03:46.728Z,15.23
2018-04-02T01:06:14.286Z,12.40
2018-04-02T01:08:41.834Z,13.27
2018-04-02T01:11:09.759Z,12.73
2018-04-02T01:13:37.450Z,14.00
2018-04-02T01:16:05.018Z,15.80
2018-04-02T01:18:32.564Z,17.00
2018-04-02T01:21:00.173Z,16.07
2018-04-02T01:23:27.729Z,19.57
2018-04-02T01:25:55.295Z,14.97
2018-04-02T01:28:22.879Z,16.07
2018-04-02T01:30:50.420Z,14.53
2018-04-02T01:33:17.963Z,15.60
2018-04-02T01:35:45.527Z,15.20
2018-04-02T01:38:13.091Z,8.37
2018-04-02T01:40:40.629Z,8.10
2018-04-02T01:43:08.747Z,8.10
2018-04-02T01:45:36.870Z,9.93
2018-04-02T01:48:04.365Z,8.87
2018-04-02T01:50:32.647Z,9.50
2018-04-02T01:53:00.142Z,9.80
2018-04-02T01:55:28.446Z,11.10
2018-04-02T01:57:56.041Z,4.37
2018-04-02T02:00:23.607Z,6.80
2018-04-02T02:02:51.184Z,11.40
2018-04-02T02:05:20.287Z,6.27
2018-04-02T02:07:47.814Z,7.20
2018-04-02T02:10:15.392Z,8.63
2018-04-02T02:12:42.966Z,9.80
2018-04-02T02:15:15.434Z,7.93
2018-04-02T02:17:43.485Z,10.20
2018-04-02T02:20:12.519Z,11.57
2018-04-02T02:22:40.090Z,9.20
2018-04-02T02:25:11.224Z,13.00
2018-04-02T02:27:38.996Z,9.50
2018-04-02T02:30:06.549Z,11.97
2018-04-02T02:32:34.092Z,11.10
2018-04-02T02:35:01.666Z,15.00
2018-04-02T02:37:30.126Z,10.33
2018-04-02T02:39:57.698Z,21.57
2018-04-02T02:42:29.167Z,15.13
2018-04-02T02:45:00.457Z,11.13
2018-04-02T02:47:31.454Z,20.80
2018-04-02T02:49:59.120Z,16.83
2018-04-02T02:52:26.699Z,13.80
2018-04-02T02:54:54.333Z,10.50
2018-04-02T02:57:23.769Z,13.43
2018-04-02T02:59:51.409Z,9.63
2018-04-02T03:02:19.092Z,10.73
2018-04-02T03:04:47.537Z,11.47
2018-04-02T03:07:15.309Z,15.23
2018-04-02T03:09:42.935Z,16.17
2018-04-02T03:12:10.617Z,10.27
2018-04-02T03:14:38.200Z,14.63
2018-04-02T03:17:06.994Z,10.23
2018-04-02T03:19:34.983Z,14.13
2018-04-02T03:22:02.555Z,9.47
2018-04-02T03:24:30.126Z,17.33
2018-04-02T03:26:57.707Z,11.13
2018-04-02T03:29:25.355Z,14.73
2018-04-02T03:31:52.999Z,11.40
2018-04-02T03:34:20.538Z,21.50
2018-04-02T03:36:48.111Z,12.30
2018-04-02T03:39:15.899Z,11.30
2018-04-02T03:41:43.446Z,21.03
2018-04-02T03:44:11.254Z,10.33
2018-04-02T03:46:39.058Z,9.47
2018-04-02T03:49:07.076Z,11.77
2018-04-02T03:51:35.276Z,10.83
2018-04-02T03:54:02.972Z,13.47
2018-04-02T03:56:30.545Z,12.13
2018-04-02T03:58:58.153Z,11.43
2018-04-02T04:01:25.724Z,11.60
2018-04-02T04:03:53.544Z,12.00
2018-04-02T04:06:21.107Z,11.10
2018-04-02T04:08:48.686Z,10.63
2018-04-02T04:11:16.522Z,10.13
2018-04-02T04:13:44.122Z,11.30
2018-04-02T04:16:11.817Z,10.30
2018-04-02T04:18:39.370Z,10.93
2018-04-02T04:21:07.294Z,11.20
2018-04-02T04:23:35.442Z,12.43
2018-04-02T04:26:03.092Z,11.93
2018-04-02T04:28:30.637Z,13.17
2018-04-02T04:30:58.188Z,10.90
2018-04-02T04:33:25.859Z,16.00
2018-04-02T04:35:53.468Z,12.77
2018-04-02T04:38:21.105Z,12.47
2018-04-02T04:40:48.904Z,12.50
2018-04-02T04:43:17.213Z,12.93
2018-04-02T04:45:44.826Z,21.77
2018-04-02T04:48:12.600Z,14.50
2018-04-02T04:50:40.153Z,14.07
2018-04-02T04:53:07.680Z,12.70
2018-04-02T04:55:36.000Z,13.23
2018-04-02T04:58:03.801Z,12.00
2018-04-02T05:00:32.908Z,15.37
2018-04-02T05:03:00.477Z,12.80
2018-04-02T05:05:28.047Z,13.10
2018-04-02T05:07:55.664Z,13.40
2018-04-02T05:10:23.471Z,14.00
2018-04-02T05:12:51.086Z,14.10
2018-04-02T05:15:19.061Z,14.47
2018-04-02T05:17:46.760Z,15.20
2018-04-02T05:20:14.414Z,14.73
2018-04-02T05:22:42.028Z,14.00
2018-04-02T05:25:10.210Z,13.70
2018-04-02T05:30:27.862Z,13.43
2018-04-02T05:32:55.408Z,12.50
2018-04-02T05:35:23.083Z,13.07
2018-04-02T05:37:52.158Z,12.33
2018-04-02T05:40:19.723Z,15.40
2018-04-02T05:42:47.331Z,13.70
2018-04-02T05:45:15.330Z,14.40
2018-04-02T05:47:43.113Z,12.97
2018-04-02T05:50:22.391Z,13.80
2018-04-02T05:52:49.951Z,15.87
2018-04-02T05:55:17.966Z,16.67
2018-04-02T05:57:45.568Z,14.37
2018-04-02T06:00:13.337Z,17.67
2018-04-02T06:02:40.942Z,15.13
2018-04-02T06:05:08.909Z,12.30
2018-04-02T06:07:36.558Z,13.67
2018-04-02T06:10:04.171Z,12.73
2018-04-02T06:12:34.381Z,11.00
2018-04-02T06:15:04.014Z,11.87
2018-04-02T06:17:31.667Z,12.90
2018-04-02T06:20:02.670Z,13.10
2018-04-02T06:22:31.599Z,11.83
2018-04-02T06:25:01.184Z,12.00
2018-04-02T06:27:29.483Z,13.33
2018-04-02T06:29:58.839Z,13.73
2018-04-02T06:32:31.704Z,13.90
2018-04-02T06:35:06.420Z,13.77
2018-04-02T06:37:34.511Z,14.20
2018-04-02T06:40:02.468Z,17.00
2018-04-02T06:42:31.354Z,14.50
2018-04-02T06:44:59.636Z,15.00
2018-04-02T06:47:31.340Z,14.47
2018-04-02T06:49:58.918Z,16.23
2018-04-02T06:52:27.558Z,13.93
2018-04-02T06:54:59.466Z,13.00
2018-04-02T06:57:27.348Z,14.27
2018-04-02T06:59:55.470Z,15.70
2018-04-02T07:02:23.492Z,15.73
2018-04-02T07:04:51.096Z,12.73
2018-04-02T07:07:20.115Z,14.33
2018-04-02T07:09:47.785Z,14.17
2018-04-02T07:12:15.402Z,14.23
2018-04-02T07:14:42.984Z,13.07
2018-04-02T07:17:11.435Z,14.90
2018-04-02T07:19:39.042Z,12.30
2018-04-02T07:22:06.602Z,14.33
2018-04-02T07:24:34.267Z,13.37
2018-04-02T07:27:02.011Z,12.40
2018-04-02T07:29:29.968Z,12.40
2018-04-02T07:31:57.618Z,12.90
2018-04-02T07:34:27.017Z,14.43
2018-04-02T07:36:54.881Z,13.17
2018-04-02T07:39:22.981Z,14.40
2018-04-02T07:41:50.690Z,13.03
2018-04-02T07:44:18.522Z,11.97
2018-04-02T07:46:46.070Z,12.93
2018-04-02T07:49:15.845Z,12.57
2018-04-02T07:51:43.688Z,12.00
2018-04-02T07:54:12.724Z,12.83
2018-04-02T07:56:40.291Z,14.80
2018-04-02T07:59:08.105Z,13.70
2018-04-02T08:01:35.716Z,13.40
2018-04-02T08:04:03.580Z,12.67
2018-04-02T08:06:31.269Z,14.80
2018-04-02T08:08:59.197Z,13.70
2018-04-02T08:11:26.867Z,13.07
2018-04-02T08:13:54.539Z,15.00
2018-04-02T08:16:23.900Z,13.03
2018-04-02T08:18:51.457Z,10.93
2018-04-02T08:21:19.397Z,13.07
2018-04-02T08:23:47.024Z,12.10
2018-04-02T08:26:14.680Z,10.30
2018-04-02T08:28:42.315Z,10.77
2018-04-02T08:31:11.070Z,12.00
2018-04-02T08:33:39.030Z,10.80
2018-04-02T08:36:06.707Z,10.67
2018-04-02T08:38:34.348Z,11.60
2018-04-02T08:41:02.217Z,11.87
2018-04-02T08:43:30.377Z,10.50
2018-04-02T08:45:57.951Z,9.53
2018-04-02T08:48:26.448Z,10.87
2018-04-02T08:50:53.997Z,11.10
2018-04-02T08:53:21.599Z,10.67
2018-04-02T08:55:49.183Z,11.60
2018-04-02T08:58:16.751Z,10.90
2018-04-02T09:00:44.379Z,10.13
2018-04-02T09:03:12.824Z,10.00
2018-04-02T09:05:40.418Z,11.53
2018-04-02T09:08:08.033Z,10.37
2018-04-02T09:10:36.844Z,10.57
2018-04-02T09:13:04.682Z,9.40
2018-04-02T09:15:32.278Z,8.47
2018-04-02T09:17:59.897Z,10.43
2018-04-02T09:20:27.458Z,9.70
2018-04-02T09:22:55.216Z,9.77
2018-04-02T09:25:23.211Z,8.60
2018-04-02T09:27:50.812Z,10.23
2018-04-02T09:30:18.695Z,10.67
2018-04-02T09:32:46.280Z,9.93
2018-04-02T09:35:14.329Z,9.17
2018-04-02T09:37:41.965Z,8.87
2018-04-02T09:40:09.553Z,9.67
2018-04-02T09:42:37.226Z,9.90
2018-04-02T09:45:05.294Z,9.60
2018-04-02T09:47:32.897Z,10.30
2018-04-02T09:50:00.775Z,9.23
2018-04-02T09:52:28.406Z,9.77
2018-04-02T09:54:56.008Z,10.50
2018-04-02T09:57:23.916Z,9.37
2018-04-02T09:59:51.522Z,10.00
2018-04-02T10:02:22.135Z,9.83
2018-04-02T10:04:49.877Z,9.70
2018-04-02T10:07:17.482Z,10.53
2018-04-02T10:09:45.094Z,11.20
2018-04-02T10:15:04.943Z,10.17
2018-04-02T10:17:34.415Z,10.47
2018-04-02T10:20:06.412Z,9.20
2018-04-02T10:22:34.089Z,12.60
2018-04-02T10:27:56.146Z,10.30
2018-04-02T10:30:23.760Z,11.40
2018-04-02T10:32:57.239Z,9.23
2018-04-02T10:35:28.797Z,9.60
2018-04-02T10:37:58.061Z,10.43
2018-04-02T10:40:25.931Z,12.03
2018-04-02T10:42:53.576Z,10.50
2018-04-02T10:45:21.405Z,10.97
2018-04-02T10:47:51.503Z,12.47
2018-04-02T10:50:19.104Z,10.10
2018-04-02T10:52:49.189Z,10.00
2018-04-02T10:55:16.903Z,10.03
2018-04-02T10:57:47.304Z,8.40
2018-04-02T11:00:19.083Z,9.77
2018-04-02T11:02:46.675Z,10.07
2018-04-02T11:05:14.598Z,8.33
2018-04-02T11:07:42.233Z,10.17
2018-04-02T11:10:09.952Z,9.60
2018-04-02T11:12:37.546Z,11.07
2018-04-02T11:15:05.328Z,10.37
2018-04-02T11:17:34.262Z,9.60
2018-04-02T11:20:01.872Z,9.53
2018-04-02T11:22:29.488Z,14.17
2018-04-02T11:24:57.083Z,10.13
2018-04-02T11:27:24.671Z,8.87
2018-04-02T11:29:52.338Z,9.13
2018-04-02T11:32:19.921Z,8.23
2018-04-02T11:34:47.494Z,9.73
2018-04-02T11:37:15.122Z,7.90
2018-04-02T11:39:42.671Z,5.93
2018-04-02T11:42:10.271Z,6.00
2018-04-02T11:44:37.879Z,6.27
2018-04-02T11:47:05.487Z,5.57
2018-04-02T11:49:33.082Z,7.40
2018-04-02T11:52:00.725Z,6.63
2018-04-02T11:54:28.303Z,8.10
2018-04-02T11:56:55.898Z,8.10
2018-04-02T11:59:23.549Z,7.90
2018-04-02T12:01:51.165Z,6.70
2018-04-02T12:04:18.749Z,6.70
2018-04-02T12:06:46.960Z,11.30
2018-04-02T12:09:14.674Z,7.20
2018-04-02T12:11:42.274Z,5.60
2018-04-02T12:14:09.906Z,5.80
2018-04-02T12:16:38.363Z,6.00
2018-04-02T12:19:05.917Z,5.87
2018-04-02T12:21:34.055Z,6.30
2018-04-02T12:24:01.637Z,4.60
2018-04-02T12:26:29.244Z,6.00
2018-04-02T12:28:56.817Z,13.10
2018-04-02T12:31:26.951Z,11.73
2018-04-02T12:33:54.548Z,6.07
2018-04-02T12:36:22.365Z,8.67
2018-04-02T12:38:50.318Z,5.80
2018-04-02T12:41:18.360Z,3.87
2018-04-02T12:43:45.966Z,4.47
2018-04-02T12:46:14.316Z,3.73
2018-04-02T12:48:42.362Z,4.00
2018-04-02T12:51:10.861Z,3.83
2018-04-02T12:53:38.840Z,3.50
2018-04-02T12:56:06.427Z,3.30
2018-04-02T12:58:34.011Z,3.43
2018-04-02T13:01:01.588Z,2.67
2018-04-02T13:03:29.804Z,4.90
2018-04-02T13:05:57.397Z,9.97
2018-04-02T13:08:24.994Z,10.27
2018-04-02T13:10:52.606Z,8.47
2018-04-02T13:13:20.661Z,3.20
2018-04-02T13:15:48.317Z,2.70
2018-04-02T13:18:16.748Z,4.10
2018-04-02T13:20:44.320Z,2.97
2018-04-02T13:23:12.005Z,3.43
2018-04-02T13:25:43.533Z,2.73
2018-04-02T13:28:11.135Z,2.60
2018-04-02T13:30:38.757Z,3.00
2018-04-02T13:33:06.477Z,2.10
2018-04-02T13:35:34.194Z,3.10
2018-04-02T13:38:01.847Z,3.23
2018-04-02T13:40:29.448Z,3.17
2018-04-02T13:43:00.650Z,2.47
2018-04-02T13:45:28.291Z,2.80
2018-04-02T13:47:55.868Z,2.73
2018-04-02T13:50:23.503Z,2.97
2018-04-02T13:52:51.083Z,2.87
2018-04-02T13:55:18.705Z,3.23
2018-04-02T13:57:46.409Z,3.80
2018-04-02T14:00:13.988Z,2.43
2018-04-02T14:02:41.567Z,2.70
2018-04-02T14:05:09.245Z,4.77
2018-04-02T14:07:38.572Z,2.63
2018-04-02T14:10:06.821Z,2.63
2018-04-02T14:12:34.581Z,2.43
2018-04-02T14:15:03.540Z,3.10
2018-04-02T14:17:31.772Z,3.10
2018-04-02T14:20:01.457Z,3.10
2018-04-02T14:22:29.114Z,3.00
2018-04-02T14:24:56.684Z,6.10
2018-04-02T14:27:24.325Z,2.80
2018-04-02T14:29:52.124Z,2.47
2018-04-02T14:32:21.272Z,3.00
2018-04-02T14:34:49.525Z,8.83
2018-04-02T14:37:17.886Z,2.50
2018-04-02T14:39:46.945Z,9.73
2018-04-02T14:42:17.441Z,3.17
2018-04-02T14:44:45.416Z,3.47
2018-04-02T14:47:13.077Z,3.23
2018-04-02T14:49:43.361Z,2.77
2018-04-02T14:52:13.289Z,2.40
2018-04-02T14:54:43.020Z,12.30
2018-04-02T14:57:11.057Z,3.27
2018-04-02T14:59:38.875Z,2.30
2018-04-02T15:02:06.491Z,2.77
2018-04-02T15:04:34.102Z,2.90
2018-04-02T15:07:01.680Z,2.40
2018-04-02T15:09:29.311Z,2.03
2018-04-02T15:11:56.927Z,2.27
2018-04-02T15:14:24.552Z,2.20
2018-04-02T15:16:52.119Z,2.23
2018-04-02T15:19:19.757Z,2.40
2018-04-02T15:21:47.341Z,1.90
2018-04-02T15:24:14.946Z,2.10
2018-04-02T15:26:42.817Z,2.43
2018-04-02T15:29:10.974Z,2.33
2018-04-02T15:31:38.545Z,1.87
2018-04-02T15:34:06.164Z,1.97
2018-04-02T15:36:33.800Z,2.60
2018-04-02T15:39:01.426Z,2.30
2018-04-02T15:41:29.028Z,2.80
2018-04-02T15:43:56.599Z,2.00
2018-04-02T15:46:25.094Z,2.07
2018-04-02T15:48:52.697Z,2.50
2018-04-02T15:51:20.389Z,2.33
2018-04-02T15:53:48.384Z,3.63
2018-04-02T15:56:16.008Z,1.73
2018-04-02T15:58:43.698Z,1.93
2018-04-02T16:01:11.295Z,2.10
2018-04-02T16:03:38.915Z,1.63
2018-04-02T16:06:06.610Z,2.00
2018-04-02T16:08:34.304Z,1.60
2018-04-02T16:11:01.926Z,2.00
2018-04-02T16:13:29.666Z,1.97
2018-04-02T16:15:57.291Z,2.60
2018-04-02T16:18:25.240Z,1.83
2018-04-02T16:20:52.820Z,2.47
2018-04-02T16:23:21.498Z,4.67
2018-04-02T16:25:50.001Z,8.60
2018-04-02T16:28:17.618Z,3.00
2018-04-02T16:30:45.218Z,2.23
2018-04-02T16:33:13.732Z,3.10
2018-04-02T16:35:41.381Z,2.97
2018-04-02T16:38:09.280Z,14.63
2018-04-02T16:40:37.986Z,12.53
2018-04-02T16:43:05.604Z,3.80
2018-04-02T16:45:33.321Z,4.10
2018-04-02T16:48:00.980Z,3.33
2018-04-02T16:50:28.583Z,6.30
2018-04-02T16:52:56.181Z,4.47
2018-04-02T16:55:24.694Z,9.60
2018-04-02T16:57:52.290Z,6.57
2018-04-02T17:00:19.892Z,5.00
2018-04-02T17:02:47.520Z,11.20
2018-04-02T17:05:15.567Z,13.30
2018-04-02T17:07:43.626Z,6.90
2018-04-02T17:10:12.385Z,10.23
2018-04-02T17:12:40.029Z,5.30
2018-04-02T17:15:08.310Z,9.30
2018-04-02T17:17:37.012Z,5.30
2018-04-02T17:20:04.634Z,9.70
2018-04-02T17:22:32.270Z,7.77
2018-04-02T17:24:59.863Z,2.13
2018-04-02T17:27:29.082Z,2.03
2018-04-02T17:29:56.728Z,8.90
2018-04-02T17:32:25.263Z,15.70
2018-04-02T17:34:53.240Z,14.70
2018-04-02T17:37:21.404Z,9.13
2018-04-02T17:39:48.975Z,10.00
2018-04-02T17:42:16.549Z,25.07
2018-04-02T17:44:44.130Z,17.57
2018-04-02T17:47:12.268Z,16.80
2018-04-02T17:49:39.860Z,2.77
2018-04-02T17:52:07.462Z,1.40
2018-04-02T17:54:35.062Z,1.40
2018-04-02T17:57:02.636Z,1.40
2018-04-02T17:59:30.257Z,1.53
2018-04-02T18:01:58.637Z,1.97
2018-04-02T18:04:26.595Z,3.73
2018-04-02T18:06:54.624Z,5.97
2018-04-02T18:09:23.258Z,8.70
2018-04-02T18:11:50.834Z,4.17
2018-04-02T18:14:18.723Z,3.37
2018-04-02T18:16:46.395Z,2.63
2018-04-02T18:19:14.094Z,3.10
2018-04-02T18:21:41.684Z,4.90
2018-04-02T18:24:09.984Z,4.33
2018-04-02T18:26:37.600Z,5.07
2018-04-02T18:29:05.153Z,5.10
2018-04-02T18:31:32.794Z,4.97
2018-04-02T18:34:00.351Z,7.30
2018-04-02T18:36:28.615Z,3.80
2018-04-02T18:38:56.479Z,4.90
2018-04-02T18:41:24.188Z,8.80
2018-04-02T18:43:51.850Z,2.00
2018-04-02T18:46:19.404Z,3.20
2018-04-02T18:48:46.951Z,3.20
2018-04-02T18:51:15.027Z,5.07
2018-04-02T18:53:42.676Z,4.67
2018-04-02T18:56:10.375Z,4.80
2018-04-02T18:58:38.267Z,3.90
2018-04-02T19:01:05.843Z,2.67
2018-04-02T19:03:33.440Z,2.17
2018-04-02T19:06:00.964Z,4.07
2018-04-02T19:08:28.542Z,13.17
2018-04-02T19:10:56.119Z,9.60
2018-04-02T19:13:24.067Z,16.17
2018-04-02T19:15:51.728Z,27.27
2018-04-02T19:18:19.298Z,17.47
2018-04-02T19:20:46.855Z,11.10
2018-04-02T19:23:14.798Z,29.27
2018-04-02T19:25:42.565Z,20.70
2018-04-02T19:28:10.225Z,19.03
2018-04-02T19:30:37.800Z,11.83
2018-04-02T19:33:05.624Z,6.20
2018-04-02T19:35:33.542Z,3.53
2018-04-02T19:38:01.428Z,4.40
2018-04-02T19:40:29.219Z,4.03
2018-04-02T19:42:56.794Z,6.20
2018-04-02T19:45:24.440Z,4.40
2018-04-02T19:47:52.150Z,2.90
2018-04-02T19:50:19.724Z,2.67
2018-04-02T19:52:47.310Z,5.30
2018-04-02T19:55:15.005Z,7.17
2018-04-02T19:57:42.657Z,7.43
2018-04-02T20:00:10.278Z,4.30
2018-04-02T20:02:37.871Z,3.53
2018-04-02T20:05:05.768Z,3.20
2018-04-02T20:07:33.551Z,3.17
2018-04-02T20:10:01.111Z,3.00
2018-04-02T20:12:28.666Z,2.33
2018-04-02T20:14:56.276Z,12.70
2018-04-02T20:17:23.840Z,13.30
2018-04-02T20:19:51.645Z,24.07
2018-04-02T20:22:19.438Z,8.47
2018-04-02T20:24:46.989Z,7.23
2018-04-02T20:27:14.570Z,5.77
2018-04-02T20:29:42.148Z,4.43
2018-04-02T20:32:09.830Z,3.13
2018-04-02T20:34:37.384Z,2.43
2018-04-02T20:37:05.139Z,10.43
2018-04-02T20:39:33.069Z,44.87
2018-04-02T20:42:00.634Z,8.67
2018-04-02T20:44:28.429Z,10.90
2018-04-02T20:46:55.979Z,8.07
2018-04-02T20:49:23.523Z,2.80
2018-04-02T20:51:51.125Z,3.47
2018-04-02T20:54:18.693Z,3.30
2018-04-02T20:56:46.192Z,3.10
2018-04-02T20:59:14.716Z,2.50
2018-04-02T21:01:42.263Z,2.57
2018-04-02T21:04:10.235Z,2.10
2018-04-02T21:06:37.838Z,2.90
2018-04-02T21:09:07.693Z,2.60
2018-04-02T21:11:35.949Z,3.03
2018-04-02T21:14:03.621Z,2.23
2018-04-02T21:16:31.167Z,2.20
2018-04-02T21:18:59.665Z,4.00
2018-04-02T21:21:27.237Z,5.87
2018-04-02T21:23:54.792Z,3.23
2018-04-02T21:26:22.370Z,3.07
2018-04-02T21:28:49.932Z,4.83
2018-04-02T21:31:17.480Z,7.23
2018-04-02T21:33:45.041Z,5.70
2018-04-02T21:36:12.597Z,8.20
2018-04-02T21:38:40.142Z,3.30
2018-04-02T21:41:07.777Z,2.80
2018-04-02T21:43:35.317Z,2.43
2018-04-02T21:46:02.870Z,5.80
2018-04-02T21:48:30.414Z,4.17
2018-04-02T21:50:57.976Z,2.43
2018-04-02T21:53:25.728Z,2.90
2018-04-02T21:55:53.278Z,2.33
2018-04-02T21:58:20.829Z,2.30
2018-04-02T22:00:48.377Z,2.60
2018-04-02T22:03:15.979Z,2.00
2018-04-02T22:05:43.576Z,2.10
2018-04-02T22:08:11.233Z,2.53
2018-04-02T22:10:38.817Z,2.40
2018-04-02T22:13:06.795Z,3.80
2018-04-02T22:15:34.355Z,3.03
2018-04-02T22:18:01.905Z,2.83
2018-04-02T22:20:29.917Z,2.80
2018-04-02T22:22:57.465Z,1.73
2018-04-02T22:25:25.140Z,2.57
2018-04-02T22:27:52.721Z,2.53
2018-04-02T22:30:20.312Z,3.50
2018-04-02T22:32:47.907Z,2.77
2018-04-02T22:35:15.690Z,2.97
2018-04-02T22:37:43.653Z,2.63
2018-04-02T22:40:11.257Z,1.83
2018-04-02T22:42:40.220Z,1.70
2018-04-02T22:45:08.666Z,2.30
2018-04-02T22:47:36.260Z,1.40
2018-04-02T22:50:03.838Z,2.27
2018-04-02T22:52:31.391Z,2.60
2018-04-02T22:54:58.950Z,2.20
2018-04-02T22:57:26.535Z,2.63
2018-04-02T22:59:54.072Z,2.10
2018-04-02T23:02:21.651Z,2.10
2018-04-02T23:04:49.199Z,1.80
2018-04-02T23:07:16.795Z,1.20
2018-04-02T23:09:44.348Z,7.00
2018-04-02T23:12:11.876Z,2.27
2018-04-02T23:14:39.429Z,3.53
2018-04-02T23:17:07.080Z,2.93
2018-04-02T23:19:34.686Z,3.47
2018-04-02T23:22:02.241Z,3.93
2018-04-02T23:24:29.799Z,3.10
2018-04-02T23:26:57.358Z,3.90
2018-04-02T23:29:24.894Z,3.83
2018-04-02T23:31:52.426Z,4.37
2018-04-02T23:34:19.984Z,3.90
2018-04-02T23:36:47.531Z,5.67
2018-04-02T23:39:24.026Z,5.67
2018-04-02T23:41:51.604Z,7.37
2018-04-02T23:44:19.162Z,6.17
2018-04-02T23:46:46.715Z,5.10
2018-04-02T23:49:14.264Z,4.90
2018-04-02T23:51:41.811Z,3.37
2018-04-02T23:54:09.423Z,2.70
2018-04-02T23:56:36.968Z,4.73
2018-04-02T23:59:04.535Z,4.93
